sensor_id;sensor_type;location;lat;lon;timestamp;pressure;altitude;pressure_sealevel;temperature;humidity
21594;BME280;10959;51.328;7.322;2022-10-16T07:39:48;98607.06;;;13.72;100.00
21594;BME280;10959;51.328;7.322;2022-10-16T07:42:14;98613.28;;;14.27;100.00
21594;BME280;10959;51.328;7.322;2022-10-16T07:44:41;98619.38;;;14.84;100.00
21594;BME280;10959;51.328;7.322;2022-10-16T07:47:08;98617.97;;;15.17;98.77
21594;BME280;10959;51.328;7.322;2022-10-16T07:49:34;98616.41;;;15.38;96.73
21594;BME280;10959;51.328;7.322;2022-10-16T07:52:01;98612.91;;;15.62;95.14
21594;BME280;10959;51.328;7.322;2022-10-16T07:54:27;98624.19;;;15.82;93.81
21594;BME280;10959;51.328;7.322;2022-10-16T07:56:55;98629.56;;;15.95;92.33
21594;BME280;10959;51.328;7.322;2022-10-16T07:59:21;98632.53;;;16.03;91.44
21594;BME280;10959;51.328;7.322;2022-10-16T08:01:48;98632.47;;;16.16;90.60
21594;BME280;10959;51.328;7.322;2022-10-16T08:04:15;98635.19;;;16.40;89.66
21594;BME280;10959;51.328;7.322;2022-10-16T08:06:42;98653.34;;;16.39;88.89
21594;BME280;10959;51.328;7.322;2022-10-16T08:09:08;98655.44;;;16.71;88.00
21594;BME280;10959;51.328;7.322;2022-10-16T08:11:35;98650.38;;;17.02;87.50
21594;BME280;10959;51.328;7.322;2022-10-16T08:14:03;98669.19;;;17.28;86.28
21594;BME280;10959;51.328;7.322;2022-10-16T08:16:30;98662.88;;;17.50;85.53
21594;BME280;10959;51.328;7.322;2022-10-16T08:18:56;98659.56;;;17.69;84.62
21594;BME280;10959;51.328;7.322;2022-10-16T08:21:23;98673.91;;;17.83;83.29
21594;BME280;10959;51.328;7.322;2022-10-16T08:23:49;98676.38;;;17.97;83.18
21594;BME280;10959;51.328;7.322;2022-10-16T08:26:16;98669.41;;;18.16;82.83
21594;BME280;10959;51.328;7.322;2022-10-16T08:28:44;98679.31;;;18.28;81.93
21594;BME280;10959;51.328;7.322;2022-10-16T08:31:14;98675.47;;;18.30;80.01
21594;BME280;10959;51.328;7.322;2022-10-16T08:33:43;98675.75;;;18.48;79.56
21594;BME280;10959;51.328;7.322;2022-10-16T08:36:12;98681.03;;;18.61;79.73
21594;BME280;10959;51.328;7.322;2022-10-16T08:38:38;98683.31;;;18.77;79.10
21594;BME280;10959;51.328;7.322;2022-10-16T08:41:20;98700.34;;;18.70;78.34
21594;BME280;10959;51.328;7.322;2022-10-16T08:44:08;98692.97;;;18.81;78.13
21594;BME280;10959;51.328;7.322;2022-10-16T08:46:51;98700.94;;;19.06;77.57
21594;BME280;10959;51.328;7.322;2022-10-16T08:49:21;98713.13;;;19.23;77.61
21594;BME280;10959;51.328;7.322;2022-10-16T08:51:49;98715.50;;;19.37;76.87
21594;BME280;10959;51.328;7.322;2022-10-16T08:54:26;98715.22;;;19.40;76.66
21594;BME280;10959;51.328;7.322;2022-10-16T08:56:55;98726.19;;;19.71;76.17
21594;BME280;10959;51.328;7.322;2022-10-16T08:59:22;98722.66;;;19.80;74.98
21594;BME280;10959;51.328;7.322;2022-10-16T09:01:51;98720.66;;;19.82;74.17
21594;BME280;10959;51.328;7.322;2022-10-16T09:04:44;98733.47;;;19.61;73.91
21594;BME280;10959;51.328;7.322;2022-10-16T09:07:18;98731.47;;;19.84;72.78
21594;BME280;10959;51.328;7.322;2022-10-16T09:10:00;98740.50;;;19.84;72.60
21594;BME280;10959;51.328;7.322;2022-10-16T09:12:33;98735.09;;;19.94;71.13
21594;BME280;10959;51.328;7.322;2022-10-16T09:15:11;98740.56;;;19.94;71.21
21594;BME280;10959;51.328;7.322;2022-10-16T09:17:49;98748.09;;;20.02;70.35
21594;BME280;10959;51.328;7.322;2022-10-16T09:20:26;98745.16;;;19.94;69.81
21594;BME280;10959;51.328;7.322;2022-10-16T09:23:07;98745.59;;;19.99;69.79
21594;BME280;10959;51.328;7.322;2022-10-16T09:25:38;98744.22;;;20.14;70.68
21594;BME280;10959;51.328;7.322;2022-10-16T09:28:07;98738.81;;;20.34;69.79
21594;BME280;10959;51.328;7.322;2022-10-16T09:30:34;98752.22;;;20.37;69.00
21594;BME280;10959;51.328;7.322;2022-10-16T09:33:02;98756.25;;;20.43;69.18
21594;BME280;10959;51.328;7.322;2022-10-16T09:35:33;98751.66;;;20.53;68.85
21594;BME280;10959;51.328;7.322;2022-10-16T09:38:01;98752.97;;;20.59;67.56
21594;BME280;10959;51.328;7.322;2022-10-16T09:40:31;98765.56;;;20.71;68.18
21594;BME280;10959;51.328;7.322;2022-10-16T09:43:03;98759.81;;;20.84;68.26
21594;BME280;10959;51.328;7.322;2022-10-16T09:45:32;98768.75;;;20.96;68.48
21594;BME280;10959;51.328;7.322;2022-10-16T09:48:10;98771.06;;;20.91;67.28
21594;BME280;10959;51.328;7.322;2022-10-16T09:50:37;98770.75;;;21.13;67.08
21594;BME280;10959;51.328;7.322;2022-10-16T09:53:06;98768.91;;;21.23;67.39
21594;BME280;10959;51.328;7.322;2022-10-16T09:55:34;98766.72;;;21.17;67.47
21594;BME280;10959;51.328;7.322;2022-10-16T09:58:01;98759.09;;;21.31;67.12
21594;BME280;10959;51.328;7.322;2022-10-16T10:00:27;98768.47;;;21.38;67.04
21594;BME280;10959;51.328;7.322;2022-10-16T10:02:55;98772.47;;;21.53;67.10
21594;BME280;10959;51.328;7.322;2022-10-16T10:05:25;98767.28;;;21.60;65.64
21594;BME280;10959;51.328;7.322;2022-10-16T10:07:55;98773.63;;;21.51;65.21
21594;BME280;10959;51.328;7.322;2022-10-16T10:10:24;98762.81;;;21.49;63.56
21594;BME280;10959;51.328;7.322;2022-10-16T10:12:52;98779.53;;;21.66;64.23
21594;BME280;10959;51.328;7.322;2022-10-16T10:15:18;98775.16;;;21.83;64.74
21594;BME280;10959;51.328;7.322;2022-10-16T10:17:48;98782.19;;;22.05;64.21
21594;BME280;10959;51.328;7.322;2022-10-16T10:20:25;98783.31;;;22.12;64.40
21594;BME280;10959;51.328;7.322;2022-10-16T10:22:53;98785.91;;;22.04;60.75
21594;BME280;10959;51.328;7.322;2022-10-16T10:25:32;98785.09;;;21.94;60.62
21594;BME280;10959;51.328;7.322;2022-10-16T10:28:34;98784.53;;;21.80;60.59
21594;BME280;10959;51.328;7.322;2022-10-16T10:31:06;98776.69;;;22.05;61.37
21594;BME280;10959;51.328;7.322;2022-10-16T10:33:42;98787.66;;;22.05;61.36
21594;BME280;10959;51.328;7.322;2022-10-16T10:36:25;98791.91;;;22.17;62.38
21594;BME280;10959;51.328;7.322;2022-10-16T10:38:57;98792.41;;;22.40;60.70
21594;BME280;10959;51.328;7.322;2022-10-16T10:41:59;98792.53;;;22.11;61.97
21594;BME280;10959;51.328;7.322;2022-10-16T10:44:37;98785.44;;;22.18;61.21
21594;BME280;10959;51.328;7.322;2022-10-16T10:47:17;98795.75;;;21.97;60.86
21594;BME280;10959;51.328;7.322;2022-10-16T10:49:57;98791.72;;;22.01;60.62
21594;BME280;10959;51.328;7.322;2022-10-16T10:52:47;98801.25;;;21.97;61.32
21594;BME280;10959;51.328;7.322;2022-10-16T10:55:24;98794.16;;;22.32;61.01
21594;BME280;10959;51.328;7.322;2022-10-16T10:58:05;98796.75;;;22.43;61.07
21594;BME280;10959;51.328;7.322;2022-10-16T11:00:42;98791.47;;;22.59;59.81
21594;BME280;10959;51.328;7.322;2022-10-16T11:03:26;98792.09;;;22.71;60.60
21594;BME280;10959;51.328;7.322;2022-10-16T11:05:58;98797.53;;;22.99;59.34
21594;BME280;10959;51.328;7.322;2022-10-16T11:08:30;98797.31;;;23.10;58.19
21594;BME280;10959;51.328;7.322;2022-10-16T11:11:02;98802.59;;;23.22;57.89
21594;BME280;10959;51.328;7.322;2022-10-16T11:13:33;98795.28;;;23.30;57.42
21594;BME280;10959;51.328;7.322;2022-10-16T11:16:10;98804.25;;;23.33;58.07
21594;BME280;10959;51.328;7.322;2022-10-16T11:18:46;98805.03;;;23.43;57.82
21594;BME280;10959;51.328;7.322;2022-10-16T11:21:17;98812.78;;;23.47;56.81
21594;BME280;10959;51.328;7.322;2022-10-16T11:23:52;98809.50;;;23.44;56.79
21594;BME280;10959;51.328;7.322;2022-10-16T11:26:21;98804.84;;;23.62;56.89
21594;BME280;10959;51.328;7.322;2022-10-16T11:28:51;98805.94;;;23.70;56.95
21594;BME280;10959;51.328;7.322;2022-10-16T11:31:25;98809.22;;;23.73;56.19
21594;BME280;10959;51.328;7.322;2022-10-16T11:34:01;98806.19;;;23.76;55.30
21594;BME280;10959;51.328;7.322;2022-10-16T11:36:34;98807.81;;;23.87;56.29
21594;BME280;10959;51.328;7.322;2022-10-16T11:39:11;98812.97;;;23.90;55.51
21594;BME280;10959;51.328;7.322;2022-10-16T11:41:47;98810.84;;;24.02;55.46
21594;BME280;10959;51.328;7.322;2022-10-16T11:44:21;98808.22;;;24.01;55.41
21594;BME280;10959;51.328;7.322;2022-10-16T11:47:01;98801.88;;;24.00;55.04
21594;BME280;10959;51.328;7.322;2022-10-16T11:49:34;98806.09;;;24.12;54.54
21594;BME280;10959;51.328;7.322;2022-10-16T11:52:07;98802.78;;;24.09;55.25
21594;BME280;10959;51.328;7.322;2022-10-16T11:54:45;98806.88;;;24.05;55.04
21594;BME280;10959;51.328;7.322;2022-10-16T11:57:21;98813.53;;;23.94;55.25
21594;BME280;10959;51.328;7.322;2022-10-16T11:59:52;98808.66;;;23.88;55.00
21594;BME280;10959;51.328;7.322;2022-10-16T12:02:31;98802.38;;;23.77;55.55
21594;BME280;10959;51.328;7.322;2022-10-16T12:05:11;98814.25;;;23.78;55.23
21594;BME280;10959;51.328;7.322;2022-10-16T12:07:48;98814.25;;;23.78;55.00
21594;BME280;10959;51.328;7.322;2022-10-16T12:10:23;98815.75;;;23.72;54.89
21594;BME280;10959;51.328;7.322;2022-10-16T12:12:49;98817.78;;;23.70;54.65
21594;BME280;10959;51.328;7.322;2022-10-16T12:15:22;98826.56;;;23.29;51.00
21594;BME280;10959;51.328;7.322;2022-10-16T12:17:49;98832.66;;;23.23;54.52
21594;BME280;10959;51.328;7.322;2022-10-16T12:20:23;98831.38;;;23.00;55.09
21594;BME280;10959;51.328;7.322;2022-10-16T12:22:52;98828.13;;;23.14;54.90
21594;BME280;10959;51.328;7.322;2022-10-16T12:25:24;98839.13;;;23.14;55.34
21594;BME280;10959;51.328;7.322;2022-10-16T12:27:58;98835.34;;;23.15;55.26
21594;BME280;10959;51.328;7.322;2022-10-16T12:30:27;98832.38;;;23.26;55.11
21594;BME280;10959;51.328;7.322;2022-10-16T12:32:55;98827.81;;;23.35;55.72
21594;BME280;10959;51.328;7.322;2022-10-16T12:35:24;98836.22;;;23.34;55.46
21594;BME280;10959;51.328;7.322;2022-10-16T12:37:52;98841.31;;;23.28;55.12
21594;BME280;10959;51.328;7.322;2022-10-16T12:40:28;98829.88;;;23.15;54.88
21594;BME280;10959;51.328;7.322;2022-10-16T12:42:56;98824.91;;;23.19;55.48
21594;BME280;10959;51.328;7.322;2022-10-16T12:45:35;98830.66;;;22.98;55.28
21594;BME280;10959;51.328;7.322;2022-10-16T12:48:04;98829.75;;;23.07;55.26
21594;BME280;10959;51.328;7.322;2022-10-16T12:50:44;98834.34;;;22.88;53.77
21594;BME280;10959;51.328;7.322;2022-10-16T12:53:18;98829.38;;;22.74;55.11
21594;BME280;10959;51.328;7.322;2022-10-16T12:55:54;98824.63;;;22.66;55.54
21594;BME280;10959;51.328;7.322;2022-10-16T12:58:46;98841.53;;;22.43;55.57
21594;BME280;10959;51.328;7.322;2022-10-16T13:01:28;98839.28;;;22.57;56.73
21594;BME280;10959;51.328;7.322;2022-10-16T13:06:53;98840.25;;;22.66;54.93
21594;BME280;10959;51.328;7.322;2022-10-16T13:09:35;98838.72;;;22.53;56.48
21594;BME280;10959;51.328;7.322;2022-10-16T13:12:17;98851.03;;;22.49;56.38
21594;BME280;10959;51.328;7.322;2022-10-16T13:17:46;98852.44;;;22.53;56.37
21594;BME280;10959;51.328;7.322;2022-10-16T13:20:20;98840.44;;;22.54;56.18
21594;BME280;10959;51.328;7.322;2022-10-16T13:22:54;98840.34;;;22.46;55.88
21594;BME280;10959;51.328;7.322;2022-10-16T13:25:33;98834.03;;;22.36;56.50
21594;BME280;10959;51.328;7.322;2022-10-16T13:28:04;98838.06;;;22.41;56.87
21594;BME280;10959;51.328;7.322;2022-10-16T13:30:34;98835.78;;;22.37;56.93
21594;BME280;10959;51.328;7.322;2022-10-16T13:33:06;98840.94;;;22.40;57.45
21594;BME280;10959;51.328;7.322;2022-10-16T13:35:35;98842.69;;;22.41;57.54
21594;BME280;10959;51.328;7.322;2022-10-16T13:38:12;98841.25;;;22.27;57.66
21594;BME280;10959;51.328;7.322;2022-10-16T13:40:49;98847.91;;;22.24;57.77
21594;BME280;10959;51.328;7.322;2022-10-16T13:43:19;98852.53;;;22.34;57.16
21594;BME280;10959;51.328;7.322;2022-10-16T13:45:59;98859.78;;;22.15;56.68
21594;BME280;10959;51.328;7.322;2022-10-16T13:48:27;98862.22;;;22.18;57.77
21594;BME280;10959;51.328;7.322;2022-10-16T13:51:02;98856.06;;;22.06;57.52
21594;BME280;10959;51.328;7.322;2022-10-16T13:53:30;98847.06;;;22.14;57.41
21594;BME280;10959;51.328;7.322;2022-10-16T13:55:57;98850.81;;;22.13;57.06
21594;BME280;10959;51.328;7.322;2022-10-16T13:58:26;98843.91;;;22.09;57.62
21594;BME280;10959;51.328;7.322;2022-10-16T14:00:55;98844.94;;;22.08;57.93
21594;BME280;10959;51.328;7.322;2022-10-16T14:03:23;98847.69;;;22.08;57.88
21594;BME280;10959;51.328;7.322;2022-10-16T14:05:52;98849.41;;;22.09;57.95
21594;BME280;10959;51.328;7.322;2022-10-16T14:08:19;98841.63;;;22.04;57.91
21594;BME280;10959;51.328;7.322;2022-10-16T14:10:48;98844.50;;;22.03;57.83
21594;BME280;10959;51.328;7.322;2022-10-16T14:13:19;98852.31;;;21.98;57.78
21594;BME280;10959;51.328;7.322;2022-10-16T14:15:49;98863.88;;;21.91;57.84
21594;BME280;10959;51.328;7.322;2022-10-16T14:18:20;98863.56;;;21.95;58.32
21594;BME280;10959;51.328;7.322;2022-10-16T14:20:48;98854.94;;;21.89;57.53
21594;BME280;10959;51.328;7.322;2022-10-16T14:23:23;98847.19;;;21.75;57.58
21594;BME280;10959;51.328;7.322;2022-10-16T14:26:05;98853.22;;;21.69;58.34
21594;BME280;10959;51.328;7.322;2022-10-16T14:28:32;98870.66;;;21.78;58.07
21594;BME280;10959;51.328;7.322;2022-10-16T14:31:01;98871.41;;;21.70;57.71
21594;BME280;10959;51.328;7.322;2022-10-16T14:33:32;98865.06;;;21.60;57.59
21594;BME280;10959;51.328;7.322;2022-10-16T14:36:03;98873.41;;;21.48;57.72
21594;BME280;10959;51.328;7.322;2022-10-16T14:38:31;98874.59;;;21.55;58.19
21594;BME280;10959;51.328;7.322;2022-10-16T14:40:59;98873.16;;;21.51;57.69
21594;BME280;10959;51.328;7.322;2022-10-16T14:43:31;98866.50;;;21.44;57.83
21594;BME280;10959;51.328;7.322;2022-10-16T14:46:01;98856.38;;;21.45;57.54
21594;BME280;10959;51.328;7.322;2022-10-16T14:48:28;98844.56;;;21.44;58.69
21594;BME280;10959;51.328;7.322;2022-10-16T14:50:55;98829.44;;;21.40;58.36
21594;BME280;10959;51.328;7.322;2022-10-16T14:53:22;98848.59;;;21.40;57.88
21594;BME280;10959;51.328;7.322;2022-10-16T14:55:49;98845.16;;;21.38;58.11
21594;BME280;10959;51.328;7.322;2022-10-16T14:58:16;98845.44;;;21.35;57.82
21594;BME280;10959;51.328;7.322;2022-10-16T15:00:44;98858.13;;;21.36;58.65
21594;BME280;10959;51.328;7.322;2022-10-16T15:03:12;98852.63;;;21.36;59.24
21594;BME280;10959;51.328;7.322;2022-10-16T15:05:38;98854.66;;;21.34;59.46
21594;BME280;10959;51.328;7.322;2022-10-16T15:08:05;98849.47;;;21.31;58.31
21594;BME280;10959;51.328;7.322;2022-10-16T15:10:37;98866.75;;;21.21;58.48
21594;BME280;10959;51.328;7.322;2022-10-16T15:13:04;98868.22;;;21.26;59.28
21594;BME280;10959;51.328;7.322;2022-10-16T15:15:34;98864.63;;;21.25;59.57
21594;BME280;10959;51.328;7.322;2022-10-16T15:18:01;98861.00;;;21.24;58.88
21594;BME280;10959;51.328;7.322;2022-10-16T15:20:32;98883.19;;;21.21;59.45
21594;BME280;10959;51.328;7.322;2022-10-16T15:23:00;98868.50;;;21.22;59.66
21594;BME280;10959;51.328;7.322;2022-10-16T15:25:37;98875.09;;;21.10;59.08
21594;BME280;10959;51.328;7.322;2022-10-16T15:28:05;98886.66;;;21.14;59.50
21594;BME280;10959;51.328;7.322;2022-10-16T15:30:33;98876.84;;;21.11;60.08
21594;BME280;10959;51.328;7.322;2022-10-16T15:33:00;98864.75;;;21.14;60.30
21594;BME280;10959;51.328;7.322;2022-10-16T15:35:27;98866.88;;;21.10;60.53
21594;BME280;10959;51.328;7.322;2022-10-16T15:37:55;98862.44;;;21.09;60.38
21594;BME280;10959;51.328;7.322;2022-10-16T15:40:22;98861.84;;;21.05;60.63
21594;BME280;10959;51.328;7.322;2022-10-16T15:42:49;98859.00;;;21.66;57.83
21594;BME280;10959;51.328;7.322;2022-10-16T15:45:16;98868.50;;;21.22;59.76
21594;BME280;10959;51.328;7.322;2022-10-16T15:47:42;98854.94;;;21.11;60.76
21594;BME280;10959;51.328;7.322;2022-10-16T15:50:10;98858.41;;;21.03;60.70
21594;BME280;10959;51.328;7.322;2022-10-16T15:52:37;98855.63;;;20.94;60.86
21594;BME280;10959;51.328;7.322;2022-10-16T15:55:07;98863.09;;;20.92;60.48
21594;BME280;10959;51.328;7.322;2022-10-16T15:57:34;98853.19;;;20.91;61.46
21594;BME280;10959;51.328;7.322;2022-10-16T16:00:05;98831.53;;;20.87;61.69
21594;BME280;10959;51.328;7.322;2022-10-16T16:02:31;98837.31;;;20.84;62.06
21594;BME280;10959;51.328;7.322;2022-10-16T16:04:58;98843.06;;;20.81;62.55
21594;BME280;10959;51.328;7.322;2022-10-16T16:07:24;98847.97;;;20.78;62.11
21594;BME280;10959;51.328;7.322;2022-10-16T16:09:52;98844.22;;;20.79;62.69
21594;BME280;10959;51.328;7.322;2022-10-16T16:12:20;98847.09;;;20.77;62.48
21594;BME280;10959;51.328;7.322;2022-10-16T16:14:47;98845.63;;;20.73;62.36
21594;BME280;10959;51.328;7.322;2022-10-16T16:17:14;98841.44;;;20.69;62.98
21594;BME280;10959;51.328;7.322;2022-10-16T16:19:41;98843.47;;;20.67;62.81
21594;BME280;10959;51.328;7.322;2022-10-16T16:22:07;98852.22;;;20.61;63.34
21594;BME280;10959;51.328;7.322;2022-10-16T16:24:34;98840.94;;;20.54;63.38
21594;BME280;10959;51.328;7.322;2022-10-16T16:27:00;98840.63;;;20.47;63.30
21594;BME280;10959;51.328;7.322;2022-10-16T16:29:28;98839.16;;;20.43;63.34
21594;BME280;10959;51.328;7.322;2022-10-16T16:31:55;98845.19;;;20.37;63.15
21594;BME280;10959;51.328;7.322;2022-10-16T16:34:24;98850.66;;;20.37;63.52
21594;BME280;10959;51.328;7.322;2022-10-16T16:36:51;98851.22;;;20.31;63.40
21594;BME280;10959;51.328;7.322;2022-10-16T16:39:18;98848.03;;;20.26;63.89
21594;BME280;10959;51.328;7.322;2022-10-16T16:41:45;98850.84;;;20.14;63.77
21594;BME280;10959;51.328;7.322;2022-10-16T16:44:12;98839.63;;;20.17;63.92
21594;BME280;10959;51.328;7.322;2022-10-16T16:46:41;98844.66;;;20.12;64.29
21594;BME280;10959;51.328;7.322;2022-10-16T16:49:09;98849.38;;;20.10;64.32
21594;BME280;10959;51.328;7.322;2022-10-16T16:51:37;98855.13;;;20.07;64.27
21594;BME280;10959;51.328;7.322;2022-10-16T16:54:04;98863.75;;;20.02;64.45
21594;BME280;10959;51.328;7.322;2022-10-16T16:56:32;98862.63;;;20.05;64.73
21594;BME280;10959;51.328;7.322;2022-10-16T16:58:58;98870.81;;;20.05;65.11
21594;BME280;10959;51.328;7.322;2022-10-16T17:01:26;98864.31;;;20.06;65.08
21594;BME280;10959;51.328;7.322;2022-10-16T17:03:56;98865.72;;;20.00;65.37
21594;BME280;10959;51.328;7.322;2022-10-16T17:06:25;98877.56;;;20.01;65.62
21594;BME280;10959;51.328;7.322;2022-10-16T17:08:52;98866.63;;;20.01;65.36
21594;BME280;10959;51.328;7.322;2022-10-16T17:11:21;98875.38;;;19.95;65.44
21594;BME280;10959;51.328;7.322;2022-10-16T17:13:49;98880.09;;;19.93;65.77
21594;BME280;10959;51.328;7.322;2022-10-16T17:16:17;98879.22;;;19.92;66.12
21594;BME280;10959;51.328;7.322;2022-10-16T17:18:44;98889.28;;;19.92;66.19
21594;BME280;10959;51.328;7.322;2022-10-16T17:21:12;98883.81;;;19.92;66.18
21594;BME280;10959;51.328;7.322;2022-10-16T17:23:38;98885.81;;;19.90;66.49
21594;BME280;10959;51.328;7.322;2022-10-16T17:26:06;98885.81;;;19.90;66.16
21594;BME280;10959;51.328;7.322;2022-10-16T17:28:32;98889.81;;;19.85;66.49
21594;BME280;10959;51.328;7.322;2022-10-16T17:31:07;98890.84;;;19.73;66.95
21594;BME280;10959;51.328;7.322;2022-10-16T17:33:34;98900.13;;;19.82;67.25
21594;BME280;10959;51.328;7.322;2022-10-16T17:36:00;98901.28;;;19.79;67.53
21594;BME280;10959;51.328;7.322;2022-10-16T17:38:28;98892.06;;;19.80;67.07
21594;BME280;10959;51.328;7.322;2022-10-16T17:40:55;98889.56;;;19.77;67.19
21594;BME280;10959;51.328;7.322;2022-10-16T17:43:21;98885.13;;;19.76;67.59
21594;BME280;10959;51.328;7.322;2022-10-16T17:45:48;98890.97;;;19.72;67.79
21594;BME280;10959;51.328;7.322;2022-10-16T17:48:14;98898.09;;;19.63;68.04
21594;BME280;10959;51.328;7.322;2022-10-16T17:50:46;98899.88;;;19.52;68.81
21594;BME280;10959;51.328;7.322;2022-10-16T17:53:14;98902.72;;;19.62;68.87
21594;BME280;10959;51.328;7.322;2022-10-16T17:55:43;98897.09;;;19.64;68.62
21594;BME280;10959;51.328;7.322;2022-10-16T17:58:09;98892.50;;;19.64;68.96
21594;BME280;10959;51.328;7.322;2022-10-16T18:00:36;98902.56;;;19.64;69.18
21594;BME280;10959;51.328;7.322;2022-10-16T18:03:03;98906.03;;;19.66;69.35
21594;BME280;10959;51.328;7.322;2022-10-16T18:05:30;98911.50;;;19.66;69.60
21594;BME280;10959;51.328;7.322;2022-10-16T18:07:56;98910.00;;;19.62;69.83
21594;BME280;10959;51.328;7.322;2022-10-16T18:10:23;98911.75;;;19.63;69.62
21594;BME280;10959;51.328;7.322;2022-10-16T18:12:55;98915.03;;;19.57;69.66
21594;BME280;10959;51.328;7.322;2022-10-16T18:15:22;98916.94;;;19.66;70.14
21594;BME280;10959;51.328;7.322;2022-10-16T18:17:48;98914.97;;;19.68;70.20
21594;BME280;10959;51.328;7.322;2022-10-16T18:20:14;98912.50;;;19.65;70.42
21594;BME280;10959;51.328;7.322;2022-10-16T18:22:41;98907.19;;;19.63;70.66
21594;BME280;10959;51.328;7.322;2022-10-16T18:25:07;98904.31;;;19.65;70.14
21594;BME280;10959;51.328;7.322;2022-10-16T18:27:34;98913.22;;;19.67;70.68
21594;BME280;10959;51.328;7.322;2022-10-16T18:30:02;98909.78;;;19.65;70.72
21594;BME280;10959;51.328;7.322;2022-10-16T18:32:29;98912.03;;;19.60;71.48
21594;BME280;10959;51.328;7.322;2022-10-16T18:34:55;98898.38;;;19.60;71.29
21594;BME280;10959;51.328;7.322;2022-10-16T18:37:21;98895.00;;;19.56;71.45
21594;BME280;10959;51.328;7.322;2022-10-16T18:39:48;98896.91;;;19.56;72.00
21594;BME280;10959;51.328;7.322;2022-10-16T18:42:15;98905.56;;;19.61;71.92
21594;BME280;10959;51.328;7.322;2022-10-16T18:44:41;98905.09;;;19.56;72.30
21594;BME280;10959;51.328;7.322;2022-10-16T18:47:09;98903.34;;;19.55;72.43
21594;BME280;10959;51.328;7.322;2022-10-16T18:49:36;98901.63;;;19.54;72.26
21594;BME280;10959;51.328;7.322;2022-10-16T18:52:02;98901.41;;;19.45;72.85
21594;BME280;10959;51.328;7.322;2022-10-16T18:54:29;98895.19;;;19.43;73.35
21594;BME280;10959;51.328;7.322;2022-10-16T18:56:56;98894.97;;;19.46;73.33
21594;BME280;10959;51.328;7.322;2022-10-16T18:59:22;98905.63;;;19.49;73.31
21594;BME280;10959;51.328;7.322;2022-10-16T19:01:50;98913.06;;;19.47;73.63
21594;BME280;10959;51.328;7.322;2022-10-16T19:04:18;98906.13;;;19.43;73.94
21594;BME280;10959;51.328;7.322;2022-10-16T19:06:48;98909.34;;;19.48;73.95
21594;BME280;10959;51.328;7.322;2022-10-16T19:09:18;98911.09;;;19.49;73.42
21594;BME280;10959;51.328;7.322;2022-10-16T19:11:45;98916.53;;;19.49;74.06
21594;BME280;10959;51.328;7.322;2022-10-16T19:14:12;98916.28;;;19.52;73.82
21594;BME280;10959;51.328;7.322;2022-10-16T19:16:39;98926.94;;;19.56;73.89
21594;BME280;10959;51.328;7.322;2022-10-16T19:19:10;98934.41;;;19.54;73.53
21594;BME280;10959;51.328;7.322;2022-10-16T19:21:38;98945.34;;;19.54;73.73
21594;BME280;10959;51.328;7.322;2022-10-16T19:24:07;98950.53;;;19.57;74.19
21594;BME280;10959;51.328;7.322;2022-10-16T19:26:33;98944.09;;;19.58;74.36
21594;BME280;10959;51.328;7.322;2022-10-16T19:29:02;98948.53;;;19.59;74.17
21594;BME280;10959;51.328;7.322;2022-10-16T19:31:30;98957.47;;;19.61;74.49
21594;BME280;10959;51.328;7.322;2022-10-16T19:33:58;98965.19;;;19.56;74.67
21594;BME280;10959;51.328;7.322;2022-10-16T19:36:29;98971.75;;;19.53;74.69
21594;BME280;10959;51.328;7.322;2022-10-16T19:38:58;98974.63;;;19.51;75.02
21594;BME280;10959;51.328;7.322;2022-10-16T19:41:25;98974.34;;;19.55;75.52
21594;BME280;10959;51.328;7.322;2022-10-16T19:43:52;98969.66;;;19.57;75.64
21594;BME280;10959;51.328;7.322;2022-10-16T19:46:20;98956.25;;;19.54;75.47
21594;BME280;10959;51.328;7.322;2022-10-16T19:48:47;98962.97;;;19.49;76.53
21594;BME280;10959;51.328;7.322;2022-10-16T19:51:16;98971.66;;;19.43;76.56
21594;BME280;10959;51.328;7.322;2022-10-16T19:53:43;98978.59;;;19.47;76.37
21594;BME280;10959;51.328;7.322;2022-10-16T19:56:15;98996.03;;;19.35;76.50
21594;BME280;10959;51.328;7.322;2022-10-16T19:58:43;98998.97;;;19.43;76.53
21594;BME280;10959;51.328;7.322;2022-10-16T20:01:10;98986.06;;;19.45;76.20
21594;BME280;10959;51.328;7.322;2022-10-16T20:03:37;98975.16;;;19.45;76.33
21594;BME280;10959;51.328;7.322;2022-10-16T20:06:05;98975.16;;;19.45;76.62
21594;BME280;10959;51.328;7.322;2022-10-16T20:08:33;98970.94;;;19.41;76.99
21594;BME280;10959;51.328;7.322;2022-10-16T20:11:00;98968.47;;;19.38;76.58
21594;BME280;10959;51.328;7.322;2022-10-16T20:13:29;98974.66;;;19.40;76.57
21594;BME280;10959;51.328;7.322;2022-10-16T20:15:55;98971.19;;;19.38;76.87
21594;BME280;10959;51.328;7.322;2022-10-16T20:18:22;98970.34;;;19.38;76.99
21594;BME280;10959;51.328;7.322;2022-10-16T20:20:49;98972.44;;;19.34;77.23
21594;BME280;10959;51.328;7.322;2022-10-16T20:23:16;98970.97;;;19.30;77.25
21594;BME280;10959;51.328;7.322;2022-10-16T20:25:44;98970.38;;;19.26;77.56
21594;BME280;10959;51.328;7.322;2022-10-16T20:28:12;98976.06;;;19.23;77.68
21594;BME280;10959;51.328;7.322;2022-10-16T20:30:43;98982.41;;;19.12;77.38
21594;BME280;10959;51.328;7.322;2022-10-16T20:33:10;98973.25;;;19.13;77.76
21594;BME280;10959;51.328;7.322;2022-10-16T20:35:39;98972.50;;;19.11;77.42
21594;BME280;10959;51.328;7.322;2022-10-16T20:38:06;98970.03;;;19.08;77.90
21594;BME280;10959;51.328;7.322;2022-10-16T20:40:32;98970.75;;;19.10;77.57
21594;BME280;10959;51.328;7.322;2022-10-16T20:42:59;98971.75;;;19.09;77.80
21594;BME280;10959;51.328;7.322;2022-10-16T20:45:26;98974.75;;;19.06;78.29
21594;BME280;10959;51.328;7.322;2022-10-16T20:47:54;98971.00;;;19.07;78.60
21594;BME280;10959;51.328;7.322;2022-10-16T20:50:20;98971.00;;;19.07;78.43
21594;BME280;10959;51.328;7.322;2022-10-16T20:52:47;98973.72;;;19.07;78.73
21594;BME280;10959;51.328;7.322;2022-10-16T20:55:13;98976.47;;;19.07;78.53
21594;BME280;10959;51.328;7.322;2022-10-16T20:57:41;98979.44;;;19.04;78.86
21594;BME280;10959;51.328;7.322;2022-10-16T21:00:08;98980.22;;;19.06;78.94